Time;durP1;ratioP1;P1;durP2;ratioP2;P2;SDS_P1;SDS_P2;PMS_P1;PMS_P2;Temp;Humidity;BMP_temperature;BMP_pressure;BME280_temperature;BME280_humidity;BME280_pressure;Samples;Min_cycle;Max_cycle;Signal;HPM_P1;HPM_P2
2021/11/11 00:01:55;;;;;;;7.13;4.85;;;;;;;21.71;45.41;102389.69;5063274;28;20036;-68
2021/11/11 00:04:21;;;;;;;8.50;5.57;;;;;;;21.69;45.64;102381.06;5066225;28;20379;-68
2021/11/11 00:06:47;;;;;;;6.75;4.65;;;;;;;21.73;45.35;102383.44;5060658;28;20040;-68
2021/11/11 00:09:14;;;;;;;6.82;4.97;;;;;;;21.63;45.62;102367.59;5063525;28;20047;-68
2021/11/11 00:11:42;;;;;;;7.28;4.65;;;;;;;21.69;45.58;102372.28;5064342;28;20040;-68
2021/11/11 00:14:09;;;;;;;8.05;4.72;;;;;;;21.64;45.81;102364.78;5065299;28;20047;-68
2021/11/11 00:16:34;;;;;;;7.72;5.38;;;;;;;21.60;45.64;102363.44;5063823;28;20040;-68
2021/11/11 00:19:01;;;;;;;8.05;4.70;;;;;;;21.61;45.69;102374.88;5063674;28;20064;-68
2021/11/11 00:21:26;;;;;;;8.45;4.93;;;;;;;21.65;45.51;102363.81;5067016;28;20083;-68
2021/11/11 00:23:52;;;;;;;6.65;4.88;;;;;;;21.60;45.70;102368.75;5061264;28;20035;-68
2021/11/11 00:26:18;;;;;;;6.60;5.00;;;;;;;21.61;45.50;102370.41;5063844;28;20470;-67
2021/11/11 00:28:43;;;;;;;7.68;4.78;;;;;;;21.57;45.70;102368.22;5065048;28;20028;-68
2021/11/11 00:31:09;;;;;;;10.60;4.95;;;;;;;21.53;45.75;102378.28;5062609;28;20044;-67
2021/11/11 00:33:35;;;;;;;8.23;5.00;;;;;;;21.50;45.80;102378.59;5048055;28;20050;-66
2021/11/11 00:36:00;;;;;;;8.60;4.72;;;;;;;21.41;46.04;102377.72;5059968;28;20397;-66
2021/11/11 00:38:26;;;;;;;7.35;4.65;;;;;;;21.44;45.70;102378.38;5065584;28;20044;-66
2021/11/11 00:40:51;;;;;;;8.63;5.43;;;;;;;21.38;45.98;102370.06;5045400;28;20028;-66
2021/11/11 00:43:19;;;;;;;8.75;4.82;;;;;;;21.50;45.55;102373.28;5043768;28;20073;-66
2021/11/11 00:45:45;;;;;;;6.97;4.85;;;;;;;21.51;45.63;102371.47;5046698;28;20053;-67
2021/11/11 00:48:10;;;;;;;7.40;4.45;;;;;;;21.42;45.84;102371.44;5063928;28;20068;-67
2021/11/11 00:50:37;;;;;;;7.70;4.78;;;;;;;21.34;45.85;102357.25;5062167;28;20839;-67
2021/11/11 00:53:06;;;;;;;6.93;4.97;;;;;;;21.43;45.73;102372.25;5062253;28;20044;-67
2021/11/11 00:55:33;;;;;;;;;;;;;;;21.38;45.98;102372.72;5062409;28;20066;-68
2021/11/11 00:58:10;;;;;;;7.22;4.78;;;;;;;21.38;45.72;102372.72;5043235;28;19928;-67
2021/11/11 01:00:37;;;;;;;6.43;4.53;;;;;;;21.37;45.75;102371.06;5046603;28;20040;-67
2021/11/11 01:03:05;;;;;;;9.18;5.60;;;;;;;21.30;45.91;102363.84;5064228;28;20025;-67
2021/11/11 01:05:33;;;;;;;8.43;4.93;;;;;;;21.28;46.20;102379.06;5043186;28;20386;-67
2021/11/11 01:07:59;;;;;;;9.07;5.15;;;;;;;21.23;46.05;102379.50;5046948;28;20036;-68
2021/11/11 01:10:25;;;;;;;6.93;4.65;;;;;;;21.19;46.33;102382.63;5045519;28;20149;-67
2021/11/11 01:12:52;;;;;;;8.65;4.95;;;;;;;21.18;46.11;102383.56;5045311;28;20362;-67
2021/11/11 01:15:21;;;;;;;8.23;4.97;;;;;;;21.02;45.92;102355.13;5062366;28;20094;-67
2021/11/11 01:17:47;;;;;;;10.45;5.18;;;;;;;21.21;46.07;102380.66;5061942;28;20443;-67
2021/11/11 01:20:15;;;;;;;9.60;5.40;;;;;;;21.21;46.19;102372.69;5064541;28;20156;-67
2021/11/11 01:22:44;;;;;;;7.25;5.32;;;;;;;21.15;46.14;102376.75;5063815;28;20111;-67
2021/11/11 01:25:12;;;;;;;9.57;5.00;;;;;;;21.19;46.27;102364.06;5045440;28;20052;-67
2021/11/11 01:27:38;;;;;;;7.93;4.97;;;;;;;21.10;46.26;102379.03;5060763;28;20111;-67
2021/11/11 01:30:11;;;;;;;7.60;5.15;;;;;;;21.16;45.99;102375.78;5040881;28;20048;-67
2021/11/11 01:32:39;;;;;;;8.18;5.20;;;;;;;21.03;46.54;102370.03;5043747;28;20051;-67
2021/11/11 01:35:05;;;;;;;8.75;4.97;;;;;;;21.05;46.36;102362.78;5057392;28;20664;-67
2021/11/11 01:37:32;;;;;;;8.73;5.25;;;;;;;20.98;46.58;102367.00;5045102;28;20074;-67
2021/11/11 01:39:57;;;;;;;9.05;5.07;;;;;;;21.07;46.56;102361.63;5046482;28;20068;-67
2021/11/11 01:42:23;;;;;;;9.35;5.47;;;;;;;21.08;46.36;102351.88;5063556;28;20055;-67
2021/11/11 01:44:52;;;;;;;7.72;4.85;;;;;;;20.99;46.44;102348.28;5044247;28;20040;-67
2021/11/11 01:47:24;;;;;;;10.32;5.53;;;;;;;21.06;46.20;102348.53;5046450;28;20092;-68
2021/11/11 01:49:51;;;;;;;8.50;5.40;;;;;;;21.03;46.26;102343.56;5059111;28;20032;-67
2021/11/11 01:52:18;;;;;;;7.88;4.35;;;;;;;20.96;46.45;102348.59;5060734;28;20106;-67
2021/11/11 01:54:50;;;;;;;8.40;4.90;;;;;;;21.04;46.43;102348.69;5059311;28;20533;-67
2021/11/11 01:57:16;;;;;;;8.85;5.35;;;;;;;20.99;46.33;102343.00;5045555;28;20035;-67
2021/11/11 01:59:43;;;;;;;8.32;5.25;;;;;;;20.79;46.32;102313.19;5045351;28;20176;-67
2021/11/11 02:02:09;;;;;;;7.20;4.55;;;;;;;20.96;46.59;102340.66;5046103;28;20039;-67
2021/11/11 02:04:43;;;;;;;8.95;5.60;;;;;;;20.88;46.81;102345.06;5041339;28;20071;-68
2021/11/11 02:07:09;;;;;;;6.85;4.90;;;;;;;20.84;46.78;102344.53;5053069;28;20076;-67
2021/11/11 02:09:46;;;;;;;9.75;5.30;;;;;;;20.89;46.78;102346.72;5042524;28;20028;-67
2021/11/11 02:12:15;;;;;;;9.50;5.65;;;;;;;20.90;46.57;102343.09;5045776;28;20528;-67
2021/11/11 02:14:49;;;;;;;9.98;5.28;;;;;;;20.87;46.72;102338.94;5042179;28;20442;-68
2021/11/11 02:17:25;;;;;;;7.82;4.80;;;;;;;20.85;46.68;102338.25;5044472;28;20041;-67
2021/11/11 02:20:10;;;;;;;6.15;4.53;;;;;;;20.79;46.69;102323.78;5059312;28;20083;-66
2021/11/11 02:22:57;;;;;;;8.80;5.90;;;;;;;20.91;46.54;102334.16;5061845;28;20468;-67
2021/11/11 02:25:40;;;;;;;7.82;5.20;;;;;;;20.86;46.35;102326.69;5042609;28;20040;-66
2021/11/11 02:28:11;;;;;;;8.02;5.10;;;;;;;20.85;46.37;102327.66;5011899;28;20033;-68
2021/11/11 02:30:38;;;;;;;8.13;5.22;;;;;;;20.84;46.47;102327.81;5044238;28;20516;-67
2021/11/11 02:33:13;;;;;;;8.20;5.45;;;;;;;20.87;46.49;102327.50;5043359;28;20079;-67
2021/11/11 02:35:40;;;;;;;9.50;5.40;;;;;;;20.82;46.68;102330.59;5042104;28;20013;-67
2021/11/11 02:38:08;;;;;;;8.32;5.80;;;;;;;20.78;46.66;102319.47;5045337;28;20111;-67
2021/11/11 02:40:37;;;;;;;9.33;5.80;;;;;;;20.79;46.57;102315.84;5040562;28;20098;-67
2021/11/11 02:43:03;;;;;;;9.90;5.43;;;;;;;20.82;46.59;102320.00;5043122;28;20445;-66
2021/11/11 02:45:35;;;;;;;8.73;5.80;;;;;;;20.78;46.67;102327.41;5045094;28;20439;-67
2021/11/11 02:48:07;;;;;;;8.32;5.82;;;;;;;20.79;46.51;102323.78;5042858;28;20423;-67
2021/11/11 02:50:40;;;;;;;8.30;5.13;;;;;;;20.72;46.71;102328.00;5041195;28;20079;-67
2021/11/11 02:53:06;;;;;;;9.23;4.90;;;;;;;20.66;46.79;102318.03;5063702;28;20042;-66
2021/11/11 02:55:32;;;;;;;8.95;5.28;;;;;;;20.73;46.88;102321.75;5045447;28;20040;-67
2021/11/11 02:58:00;;;;;;;8.80;5.53;;;;;;;20.73;46.81;102320.91;5062096;28;20033;-68
2021/11/11 03:00:30;;;;;;;6.82;5.13;;;;;;;20.77;46.57;102323.09;5043122;28;20033;-67
2021/11/11 03:02:56;;;;;;;8.20;5.47;;;;;;;20.64;46.80;102321.78;5060756;28;20039;-67
2021/11/11 03:05:31;;;;;;;8.30;5.65;;;;;;;20.64;46.90;102327.91;5058652;28;20106;-67
2021/11/11 03:08:00;;;;;;;7.78;5.00;;;;;;;20.69;46.70;102332.78;5044826;28;20033;-67
2021/11/11 03:10:29;;;;;;;11.25;5.18;;;;;;;20.64;46.95;102321.78;5028617;28;20037;-68
2021/11/11 03:12:56;;;;;;;8.80;5.60;;;;;;;20.74;46.65;102328.69;5043579;28;20059;-67
2021/11/11 03:15:25;;;;;;;10.32;5.85;;;;;;;20.65;46.86;102320.84;5057603;28;20038;-67
2021/11/11 03:17:52;;;;;;;7.87;5.30;;;;;;;20.68;46.71;102326.66;5058432;28;20035;-67
2021/11/11 03:20:19;;;;;;;8.82;5.63;;;;;;;20.67;46.80;102329.44;5044975;28;20864;-67
2021/11/11 03:22:45;;;;;;;8.82;5.15;;;;;;;20.63;46.69;102336.84;5041000;28;20040;-68
2021/11/11 03:25:16;;;;;;;6.07;4.53;;;;;;;20.65;46.88;102326.97;5045844;28;20016;-67
2021/11/11 03:27:43;;;;;;;7.15;5.25;;;;;;;20.56;46.82;102324.34;5037101;28;20070;-68
2021/11/11 03:30:13;;;;;;;7.13;5.15;;;;;;;20.62;46.85;102332.53;5045313;28;20048;-67
2021/11/11 03:32:41;;;;;;;6.85;5.05;;;;;;;20.63;46.76;102331.53;5044147;28;20036;-67
2021/11/11 03:35:08;;;;;;;8.18;4.85;;;;;;;20.59;46.86;102330.19;5046214;28;20063;-67
2021/11/11 03:37:37;;;;;;;8.68;5.53;;;;;;;20.58;46.80;102328.50;5063897;28;20029;-67
2021/11/11 03:40:11;;;;;;;8.55;5.28;;;;;;;20.58;46.95;102325.03;5051362;28;20435;-67
2021/11/11 03:42:40;;;;;;;8.45;5.43;;;;;;;20.60;46.90;102331.84;5042571;28;20567;-66
2021/11/11 03:45:08;;;;;;;9.23;5.70;;;;;;;20.65;46.72;102336.72;5059969;28;20036;-67
2021/11/11 03:47:36;;;;;;;8.25;5.57;;;;;;;20.48;47.00;102331.22;5043701;28;20399;-68
2021/11/11 03:50:03;;;;;;;9.23;5.45;;;;;;;20.46;47.17;102341.09;5048482;28;20211;-67
2021/11/11 03:52:29;;;;;;;7.90;5.38;;;;;;;20.54;46.97;102339.56;5048378;28;20127;-67
2021/11/11 03:54:54;;;;;;;9.85;5.07;;;;;;;20.60;46.78;102344.25;5049039;28;20536;-67
2021/11/11 03:57:21;;;;;;;7.72;5.22;;;;;;;20.51;47.00;102335.41;5046753;28;20041;-67
2021/11/11 03:59:47;;;;;;;7.85;5.60;;;;;;;20.49;46.97;102329.41;5062370;28;20032;-68
2021/11/11 04:02:13;;;;;;;9.18;5.68;;;;;;;20.50;47.04;102326.63;5046324;28;20083;-67
2021/11/11 04:04:41;;;;;;;9.27;5.57;;;;;;;20.46;46.88;102317.28;5048582;28;20045;-67
2021/11/11 04:07:07;;;;;;;10.57;5.72;;;;;;;20.51;46.95;102333.56;5047809;28;20024;-67
2021/11/11 04:09:33;;;;;;;7.28;5.30;;;;;;;20.48;47.01;102330.41;5048596;28;20532;-67
2021/11/11 04:12:01;;;;;;;8.55;5.30;;;;;;;20.45;47.00;102326.22;5046435;28;20031;-68
2021/11/11 04:14:27;;;;;;;10.02;6.53;;;;;;;20.41;47.16;102334.59;5035053;28;20047;-67
2021/11/11 04:16:53;;;;;;;8.43;5.47;;;;;;;20.54;46.76;102334.25;5046457;28;20037;-67
2021/11/11 04:19:20;;;;;;;8.82;5.28;;;;;;;20.49;46.99;102337.34;5047480;28;20036;-67
2021/11/11 04:21:46;;;;;;;9.60;5.88;;;;;;;20.44;47.12;102336.94;5049252;28;20047;-67
2021/11/11 04:24:12;;;;;;;9.07;5.50;;;;;;;20.43;47.05;102336.13;5047138;28;20043;-67
2021/11/11 04:26:59;;;;;;;7.90;5.22;;;;;;;20.42;47.10;102333.63;5047439;28;20456;-68
2021/11/11 04:29:28;;;;;;;8.10;5.60;;;;;;;20.43;47.07;102335.28;5043284;28;20508;-66
2021/11/11 04:43:59;;;;;;;8.27;5.65;;;;;;;20.61;46.62;102341.44;5061319;28;20127;-67
2021/11/11 05:04:26;;;;;;;8.90;5.50;;;;;;;22.04;43.48;102334.22;5060185;28;20529;-68
2021/11/11 05:06:52;;;;;;;8.23;5.03;;;;;;;22.49;42.78;102333.13;5046603;28;20041;-68
2021/11/11 05:09:18;;;;;;;8.15;5.10;;;;;;;22.89;42.25;102335.06;5060087;28;20033;-67
2021/11/11 05:11:45;;;;;;;10.85;5.30;;;;;;;23.32;41.16;102338.41;5044717;28;20037;-67
2021/11/11 05:14:10;;;;;;;7.75;5.18;;;;;;;23.71;40.63;102333.28;5044002;28;20036;-67
2021/11/11 05:16:36;;;;;;;6.85;5.30;;;;;;;24.00;40.03;102325.53;5044961;28;20090;-67
2021/11/11 05:19:01;;;;;;;9.10;5.20;;;;;;;24.14;40.07;102323.16;5061553;28;20032;-67
2021/11/11 05:21:29;;;;;;;7.10;4.70;;;;;;;24.10;40.10;102323.50;5043456;28;20040;-67
2021/11/11 05:23:54;;;;;;;8.63;5.38;;;;;;;24.00;40.30;102320.22;5062760;28;20465;-68
2021/11/11 05:26:24;;;;;;;9.48;5.45;;;;;;;23.78;40.68;102329.75;5046362;28;20040;-67
2021/11/11 05:28:53;;;;;;;7.10;4.97;;;;;;;23.55;41.34;102328.78;5043637;28;20029;-67
2021/11/11 05:31:20;;;;;;;9.07;5.55;;;;;;;23.35;41.73;102324.81;5063924;28;20138;-67
2021/11/11 05:33:45;;;;;;;7.80;5.07;;;;;;;23.17;42.03;102319.66;5044670;28;20055;-67
2021/11/11 05:36:12;;;;;;;7.13;4.80;;;;;;;23.02;42.39;102322.13;5044730;28;20310;-67
2021/11/11 05:38:38;;;;;;;8.23;5.10;;;;;;;22.80;42.74;102317.41;5045941;28;20085;-67
2021/11/11 05:41:05;;;;;;;7.43;5.07;;;;;;;22.66;43.07;102315.41;5044205;28;20040;-68
2021/11/11 05:43:32;;;;;;;7.50;5.05;;;;;;;22.53;43.39;102327.31;5044577;28;20068;-66
2021/11/11 05:45:59;;;;;;;6.93;4.93;;;;;;;22.42;43.69;102326.78;5046582;28;20554;-67
2021/11/11 05:48:24;;;;;;;6.68;4.82;;;;;;;22.25;44.12;102326.72;5042187;28;20028;-67
2021/11/11 05:50:50;;;;;;;7.05;4.80;;;;;;;22.10;44.72;102324.84;5042319;28;20032;-67
2021/11/11 05:53:18;;;;;;;8.73;4.82;;;;;;;22.07;44.49;102325.97;5045311;28;20041;-67
2021/11/11 05:55:44;;;;;;;7.70;4.70;;;;;;;22.09;44.49;102326.66;5025815;28;20512;-68
2021/11/11 05:58:13;;;;;;;8.50;5.47;;;;;;;22.06;44.75;102323.47;5044097;28;20097;-67
2021/11/11 06:00:39;;;;;;;8.82;5.78;;;;;;;22.02;44.96;102322.94;5044575;28;20036;-67
2021/11/11 06:03:13;;;;;;;7.50;4.95;;;;;;;22.04;44.76;102326.25;5059745;28;20497;-67
2021/11/11 06:05:39;;;;;;;9.65;5.38;;;;;;;21.93;44.61;102329.19;5057006;28;20043;-67
2021/11/11 06:08:09;;;;;;;;;;;;;;;21.93;44.74;102329.19;5045749;28;20067;-67
2021/11/11 06:10:35;;;;;;;6.10;4.82;;;;;;;21.93;44.62;102337.97;5040724;28;20378;-67
2021/11/11 06:13:00;;;;;;;9.45;5.68;;;;;;;21.97;44.58;102331.38;5060879;28;20647;-67
2021/11/11 06:15:26;;;;;;;8.32;5.40;;;;;;;21.98;44.70;102335.69;5040884;28;20032;-68
2021/11/11 06:17:55;;;;;;;6.85;5.05;;;;;;;22.03;44.61;102344.00;5044445;28;20037;-67
2021/11/11 06:20:30;;;;;;;6.63;4.78;;;;;;;21.97;44.64;102334.03;5041754;28;20060;-67
2021/11/11 06:22:57;;;;;;;7.53;5.45;;;;;;;21.98;44.83;102333.03;5043512;28;20162;-68
2021/11/11 06:25:23;;;;;;;8.43;5.50;;;;;;;21.92;44.79;102338.16;5028944;28;20042;-67
2021/11/11 06:27:52;;;;;;;7.35;5.63;;;;;;;21.77;45.37;102345.84;5060017;28;20059;-67
2021/11/11 06:30:18;;;;;;;7.05;5.15;;;;;;;21.79;45.04;102350.97;5043012;28;20044;-67
2021/11/11 06:32:44;;;;;;;8.07;5.55;;;;;;;21.64;45.59;102356.84;5045353;28;20566;-66
2021/11/11 06:35:13;;;;;;;9.23;5.65;;;;;;;21.76;45.90;102353.94;5040285;28;20513;-67
2021/11/11 06:37:39;;;;;;;9.48;5.28;;;;;;;21.97;44.99;102349.94;5061217;28;20109;-70
2021/11/11 06:40:05;;;;;;;8.73;5.47;;;;;;;21.93;44.93;102363.69;5063578;28;20044;-70
2021/11/11 06:42:31;;;;;;;12.10;5.18;;;;;;;22.05;45.06;102351.00;5058498;28;20052;-69
2021/11/11 06:44:57;;;;;;;7.55;5.10;;;;;;;22.23;44.24;102352.56;5063319;28;20047;-68
2021/11/11 06:47:23;;;;;;;7.18;5.13;;;;;;;22.26;44.59;102359.38;5061668;28;20051;-69
2021/11/11 06:49:49;;;;;;;6.97;5.10;;;;;;;22.14;44.58;102361.50;5059863;28;20619;-69
2021/11/11 06:52:14;;;;;;;8.30;5.15;;;;;;;22.09;44.68;102366.47;5045049;28;20119;-67
2021/11/11 06:54:42;;;;;;;6.80;5.15;;;;;;;22.01;44.82;102358.41;5060948;28;20028;-67
2021/11/11 06:57:07;;;;;;;7.30;4.97;;;;;;;21.98;45.24;102354.25;5061274;28;20045;-67
2021/11/11 06:59:36;;;;;;;7.13;5.00;;;;;;;22.00;45.12;102356.75;5043149;28;20155;-67
2021/11/11 07:02:03;;;;;;;6.72;4.40;;;;;;;21.96;45.17;102364.19;5042086;28;20041;-67
2021/11/11 07:04:28;;;;;;;5.97;4.60;;;;;;;22.03;45.11;102359.06;5049340;28;20854;-67
2021/11/11 07:06:54;;;;;;;7.10;4.82;;;;;;;22.00;45.27;102362.88;5048142;28;20440;-67
2021/11/11 07:09:20;;;;;;;7.20;4.63;;;;;;;21.90;45.26;102361.31;5064453;28;20452;-67
2021/11/11 07:11:45;;;;;;;7.70;4.85;;;;;;;21.94;45.39;102375.94;5057521;28;20127;-67
2021/11/11 07:14:11;;;;;;;9.52;5.22;;;;;;;21.74;45.71;102372.66;5064633;28;20581;-68
2021/11/11 07:16:36;;;;;;;8.80;4.90;;;;;;;21.68;45.97;102374.09;5063974;28;20056;-66
2021/11/11 07:19:02;;;;;;;9.10;5.25;;;;;;;21.60;45.96;102373.22;5064859;28;20029;-64
2021/11/11 07:21:28;;;;;;;8.30;5.28;;;;;;;21.56;45.98;102371.88;5049170;28;20068;-65
2021/11/11 07:23:54;;;;;;;9.27;5.72;;;;;;;21.47;46.33;102373.59;5062181;28;20516;-66
2021/11/11 07:26:19;;;;;;;7.32;5.25;;;;;;;21.59;45.80;102361.78;5062331;28;20588;-66
2021/11/11 07:28:45;;;;;;;9.85;5.32;;;;;;;21.68;45.74;102384.69;5066719;28;20044;-66
2021/11/11 07:31:10;;;;;;;8.93;5.22;;;;;;;21.90;45.28;102390.47;5066899;28;20398;-67
2021/11/11 07:33:36;;;;;;;8.05;5.35;;;;;;;22.11;44.62;102384.88;5067184;28;20486;-66
2021/11/11 07:36:03;;;;;;;9.10;5.63;;;;;;;22.28;44.42;102386.63;5067163;28;20068;-66
2021/11/11 07:38:30;;;;;;;10.77;5.75;;;;;;;22.40;43.70;102387.16;5067164;28;20040;-66
2021/11/11 07:40:56;;;;;;;10.55;5.90;;;;;;;22.58;43.28;102394.03;5067633;28;20085;-66
2021/11/11 07:43:21;;;;;;;9.07;5.78;;;;;;;22.46;43.67;102386.53;5067722;28;20028;-66
2021/11/11 07:45:50;;;;;;;9.75;5.60;;;;;;;22.33;43.59;102405.53;5049325;28;20032;-66
2021/11/11 07:48:16;;;;;;;9.55;5.35;;;;;;;22.06;44.60;102405.72;5065880;28;20028;-66
2021/11/11 07:50:43;;;;;;;8.75;5.82;;;;;;;21.98;44.83;102404.66;5048886;28;20416;-66
2021/11/11 07:53:10;;;;;;;11.18;6.35;;;;;;;21.88;44.79;102408.38;5066519;28;20036;-66
2021/11/11 07:55:38;;;;;;;9.43;5.45;;;;;;;21.80;45.06;102405.69;5067785;28;20059;-66
2021/11/11 07:58:04;;;;;;;8.65;5.60;;;;;;;21.71;45.41;102410.91;5067282;28;20060;-66
2021/11/11 08:00:30;;;;;;;9.00;5.63;;;;;;;21.65;45.66;102408.88;5066570;28;20040;-66
2021/11/11 08:02:56;;;;;;;7.93;5.90;;;;;;;21.53;45.85;102406.59;5065859;28;20049;-66
2021/11/11 08:05:21;;;;;;;12.73;6.03;;;;;;;21.52;45.73;102410.25;5067468;28;20048;-66
2021/11/11 08:07:48;;;;;;;11.23;6.20;;;;;;;21.32;46.05;102410.41;5066953;28;20466;-66
2021/11/11 08:10:16;;;;;;;10.93;6.10;;;;;;;21.34;46.02;102404.97;5064319;28;20051;-66
2021/11/11 08:12:42;;;;;;;10.48;6.13;;;;;;;21.26;46.32;102418.13;5064623;28;20533;-66
2021/11/11 08:15:08;;;;;;;11.00;6.05;;;;;;;21.21;46.17;102410.63;5065451;28;20024;-66
2021/11/11 08:17:33;;;;;;;10.90;6.22;;;;;;;21.05;46.71;102416.56;5059192;28;20044;-66
2021/11/11 08:19:59;;;;;;;11.70;5.82;;;;;;;21.29;46.11;102416.00;5064298;28;20045;-66
2021/11/11 08:22:26;;;;;;;7.35;5.40;;;;;;;21.32;45.78;102421.00;5064884;28;20145;-66
2021/11/11 08:24:53;;;;;;;10.35;5.43;;;;;;;21.40;45.78;102410.50;5064470;28;20159;-66
2021/11/11 08:27:20;;;;;;;10.10;5.47;;;;;;;21.58;45.50;102414.97;5064695;28;20125;-67
2021/11/11 08:29:46;;;;;;;8.40;5.72;;;;;;;21.71;45.11;102407.41;5065365;28;20040;-66
2021/11/11 08:32:14;;;;;;;10.07;5.88;;;;;;;21.86;44.46;102408.53;5065736;28;20051;-66
2021/11/11 08:34:41;;;;;;;11.10;5.60;;;;;;;22.06;44.12;102411.00;5065430;28;20155;-66
2021/11/11 08:37:08;;;;;;;13.07;6.10;;;;;;;22.13;43.79;102396.97;5066431;28;20036;-66
2021/11/11 08:39:34;;;;;;;11.95;5.60;;;;;;;22.07;44.05;102389.63;5066235;28;20045;-66
2021/11/11 08:41:59;;;;;;;10.07;5.72;;;;;;;21.98;44.03;102399.34;5062348;28;20040;-66
2021/11/11 08:44:25;;;;;;;12.30;6.63;;;;;;;21.85;44.66;102404.22;5065490;28;20102;-66
2021/11/11 08:46:52;;;;;;;10.45;5.85;;;;;;;21.64;45.02;102398.44;5048757;28;20044;-66
2021/11/11 08:49:18;;;;;;;10.43;5.88;;;;;;;21.53;45.44;102391.53;5047580;28;20101;-66
2021/11/11 08:51:45;;;;;;;12.25;6.22;;;;;;;21.47;45.36;102396.63;5066068;28;20047;-66
2021/11/11 08:54:11;;;;;;;11.98;5.70;;;;;;;21.56;45.40;102387.78;5064512;28;20049;-66
2021/11/11 08:56:37;;;;;;;9.95;5.70;;;;;;;21.38;45.59;102399.22;5065615;28;20043;-65
2021/11/11 08:59:04;;;;;;;10.73;5.45;;;;;;;21.40;45.55;102401.72;5065252;28;20040;-65
2021/11/11 09:01:31;;;;;;;10.90;5.63;;;;;;;21.46;45.55;102398.44;5064901;28;20576;-65
2021/11/11 09:03:58;;;;;;;8.50;5.43;;;;;;;21.35;45.58;102391.56;5063974;28;20452;-65
2021/11/11 09:06:24;;;;;;;12.98;6.00;;;;;;;21.30;45.75;102387.69;5063232;28;20036;-65
2021/11/11 09:08:52;;;;;;;9.65;5.93;;;;;;;21.24;46.03;102393.59;5065750;28;20051;-65
2021/11/11 09:11:18;;;;;;;7.60;5.22;;;;;;;21.21;45.89;102399.19;5064894;28;20044;-65
2021/11/11 09:13:46;;;;;;;9.35;6.00;;;;;;;21.06;46.11;102396.22;5065665;28;20036;-65
2021/11/11 09:16:13;;;;;;;10.00;6.20;;;;;;;21.00;46.50;102389.69;5067025;28;20086;-65
2021/11/11 09:18:39;;;;;;;10.52;6.07;;;;;;;21.16;46.16;102396.97;5067569;28;20036;-66
2021/11/11 09:21:08;;;;;;;9.25;5.45;;;;;;;21.33;45.77;102404.13;5063216;28;20049;-66
2021/11/11 09:23:36;;;;;;;8.35;5.30;;;;;;;21.46;45.12;102395.81;5065406;28;20155;-65
2021/11/11 09:26:02;;;;;;;10.57;5.40;;;;;;;21.70;44.78;102408.41;5065608;28;20028;-65
2021/11/11 09:28:29;;;;;;;10.43;5.43;;;;;;;21.80;44.43;102405.69;5065566;28;20641;-65
2021/11/11 09:30:54;;;;;;;11.10;6.00;;;;;;;21.89;44.03;102394.97;5064251;28;20133;-65
2021/11/11 09:33:20;;;;;;;11.55;6.10;;;;;;;21.96;44.29;102395.19;5065982;28;20032;-66
2021/11/11 09:35:46;;;;;;;8.40;5.38;;;;;;;21.81;44.43;102400.22;5064336;28;20498;-66
2021/11/11 09:38:11;;;;;;;9.60;5.57;;;;;;;21.72;44.71;102395.81;5064229;28;20080;-66
2021/11/11 09:40:37;;;;;;;10.15;5.65;;;;;;;21.68;44.74;102394.47;5063985;28;20375;-65
2021/11/11 09:43:03;;;;;;;9.43;5.85;;;;;;;21.63;44.73;102399.41;5064529;28;20044;-65
2021/11/11 09:45:33;;;;;;;9.50;5.93;;;;;;;21.70;45.00;102392.50;5065278;28;20884;-65
2021/11/11 09:47:59;;;;;;;10.60;5.80;;;;;;;21.62;44.93;102400.41;5062788;28;20060;-65
2021/11/11 09:50:27;;;;;;;7.95;5.22;;;;;;;21.50;45.06;102399.81;5064795;28;20094;-65
2021/11/11 09:52:53;;;;;;;9.93;5.60;;;;;;;21.59;44.91;102400.72;5061717;28;20386;-65
2021/11/11 10:00:52;;;;;;;9.20;5.88;;;;;;;21.31;45.38;102399.97;5065017;28;20501;-65
2021/11/11 10:03:19;;;;;;;10.30;5.90;;;;;;;21.17;46.06;102400.44;5065358;28;20041;-66
2021/11/11 10:05:45;;;;;;;9.15;5.47;;;;;;;21.23;45.62;102402.53;5066618;28;20033;-65
2021/11/11 10:08:30;;;;;;;10.25;5.72;;;;;;;21.12;46.00;102411.50;5062768;28;20692;-65
2021/11/11 10:10:56;;;;;;;9.52;5.35;;;;;;;21.02;46.40;102414.22;5063708;28;20085;-66
2021/11/11 10:13:21;;;;;;;9.20;6.18;;;;;;;21.01;46.03;102406.44;5064812;28;20440;-65
2021/11/11 10:16:05;;;;;;;8.63;4.93;;;;;;;21.24;45.78;102407.69;5063171;28;20884;-66
2021/11/11 10:18:49;;;;;;;9.73;6.10;;;;;;;21.37;45.26;102415.28;5063908;28;20512;-65
2021/11/11 10:21:19;;;;;;;10.43;5.93;;;;;;;21.53;45.13;102414.56;5065111;28;20028;-65
2021/11/11 10:23:45;;;;;;;10.02;5.60;;;;;;;21.71;44.69;102412.72;5062968;28;20083;-65
2021/11/11 10:26:38;;;;;;;7.63;5.03;;;;;;;21.64;44.84;102419.63;5046544;28;20454;-65
2021/11/11 10:29:23;;;;;;;8.13;4.95;;;;;;;21.67;44.62;102424.63;5061430;28;20036;-65
2021/11/11 10:31:55;;;;;;;10.02;5.18;;;;;;;21.56;45.19;102423.06;5063227;28;20032;-65
2021/11/11 10:34:21;;;;;;;10.10;4.95;;;;;;;21.53;45.04;102415.41;5064121;28;20498;-65
2021/11/11 10:36:50;;;;;;;7.63;5.40;;;;;;;21.48;45.03;102428.28;5061079;28;20098;-65
2021/11/11 10:39:24;;;;;;;8.80;5.28;;;;;;;21.44;45.43;102426.09;5064268;28;20039;-65
2021/11/11 10:41:52;;;;;;;10.00;6.05;;;;;;;21.41;45.27;102428.06;5055501;28;20033;-65
2021/11/11 10:44:33;;;;;;;10.05;5.45;;;;;;;21.45;45.64;102433.06;5067165;28;20383;-65
2021/11/11 10:47:02;;;;;;;10.38;5.65;;;;;;;21.57;45.19;102424.72;5067340;28;20358;-65
2021/11/11 10:49:29;;;;;;;9.70;5.05;;;;;;;21.57;45.06;102424.72;5063864;28;20078;-65
2021/11/11 10:52:19;;;;;;;7.72;5.35;;;;;;;21.58;44.91;102421.09;5067110;28;20117;-65
2021/11/11 10:55:10;;;;;;;8.70;5.30;;;;;;;21.55;44.92;102421.41;5067722;28;20556;-65
2021/11/11 10:57:44;;;;;;;7.80;5.32;;;;;;;21.48;45.13;102417.69;5056317;28;20060;-65
2021/11/11 11:00:15;;;;;;;8.85;5.20;;;;;;;21.47;45.59;102410.72;5068344;28;20032;-65
2021/11/11 11:02:50;;;;;;;7.70;5.30;;;;;;;21.26;45.71;102411.03;5067691;28;20040;-65
2021/11/11 11:05:17;;;;;;;8.38;5.50;;;;;;;21.21;46.07;102404.50;5069381;28;20182;-65
2021/11/11 11:07:45;;;;;;;11.18;5.57;;;;;;;21.25;46.03;102408.53;5069570;28;20068;-65
2021/11/11 11:10:16;;;;;;;10.10;5.00;;;;;;;21.30;45.80;102404.44;5058284;28;20040;-64
2021/11/11 11:12:43;;;;;;;7.95;5.57;;;;;;;21.45;45.52;102407.38;5066071;28;20044;-65
2021/11/11 11:15:08;;;;;;;10.23;5.47;;;;;;;21.50;45.49;102420.19;5071346;28;20114;-65
2021/11/11 11:17:34;;;;;;;10.35;5.30;;;;;;;21.47;45.36;102415.19;5053783;28;20036;-65
2021/11/11 11:20:19;;;;;;;7.32;5.43;;;;;;;21.42;45.58;102418.28;5062873;28;20036;-65
2021/11/11 11:22:46;;;;;;;9.90;6.22;;;;;;;21.34;45.79;102421.69;5067192;28;20024;-64
2021/11/11 11:25:12;;;;;;;8.40;4.90;;;;;;;21.25;45.74;102412.00;5061469;28;20040;-64
2021/11/11 11:27:37;;;;;;;8.65;5.28;;;;;;;21.20;46.08;102418.72;5061851;28;20440;-64
2021/11/11 11:30:15;;;;;;;7.88;5.25;;;;;;;21.07;46.38;102411.97;5061834;28;20067;-64
2021/11/11 11:32:43;;;;;;;7.72;4.75;;;;;;;21.10;46.28;102414.31;5062172;28;20148;-63
2021/11/11 11:35:10;;;;;;;8.13;5.40;;;;;;;21.03;46.42;102409.78;5063217;28;20052;-65
2021/11/11 11:37:36;;;;;;;9.40;5.30;;;;;;;20.90;46.71;102414.59;5064825;28;20491;-65
2021/11/11 11:40:09;;;;;;;7.78;4.90;;;;;;;20.99;46.70;102409.22;5065970;28;20119;-64
2021/11/11 11:42:38;;;;;;;9.57;5.35;;;;;;;21.15;46.61;102408.56;5069534;28;20044;-69
2021/11/11 11:45:18;;;;;;;13.13;5.68;;;;;;;21.25;46.17;102414.66;5055253;28;20615;-70
2021/11/11 11:47:50;;;;;;;7.80;5.10;;;;;;;21.22;46.36;102414.09;5067349;28;20038;-69
2021/11/11 11:50:23;;;;;;;8.07;5.00;;;;;;;21.26;46.29;102410.19;5060469;28;20075;-69
2021/11/11 11:52:57;;;;;;;9.23;5.20;;;;;;;21.25;46.27;102408.53;5056236;28;20120;-69
2021/11/11 11:55:29;;;;;;;9.13;5.15;;;;;;;21.24;46.22;102405.03;5060789;28;20036;-70
2021/11/11 11:58:09;;;;;;;6.68;4.30;;;;;;;21.20;46.38;102408.94;5057693;28;20512;-70
2021/11/11 12:39:46;;;;;;;8.55;5.07;;;;;;;22.21;45.08;102378.44;5034976;28;20502;-67
2021/11/11 12:42:17;;;;;;;9.95;5.47;;;;;;;22.05;45.20;102372.22;5060616;28;20044;-67
2021/11/11 12:45:09;;;;;;;10.35;5.47;;;;;;;22.25;45.15;102373.66;5044539;28;20051;-75